Terminal Aerodrome Forecast
Issued by NWS Melbourne, FL

Home | Current Version | Previous Version | Text Only | Print | Product List | Glossary On
Versions: 1 2 3 4 5 6 7 8 9 10 11 12 13
000
FTUS42 KMLB 311700
TAFVRB
TAF
KVRB 311736Z 3118/0118 29011KT P6SM SCT035
     FM010000 28008KT P6SM FEW030
     FM011200 28012G19KT P6SM SKC
     FM011500 29020G28KT P6SM SKC=

USA.gov is the U.S. government's official web portal to all federal, state and local government web resources and services.